sensor_id;sensor_type;location;lat;lon;timestamp;pressure;altitude;pressure_sealevel;temperature;humidity
69318;BME280;56457;52.190;4.440;2023-07-24T00:00:45;100510.47;;;18.51;100.00
69318;BME280;56457;52.190;4.440;2023-07-24T00:01:46;100507.81;;;18.51;100.00
69318;BME280;56457;52.190;4.440;2023-07-24T00:02:46;100505.22;;;18.50;100.00
69318;BME280;56457;52.190;4.440;2023-07-24T00:03:46;100508.81;;;18.49;100.00
69318;BME280;56457;52.190;4.440;2023-07-24T00:04:47;100504.16;;;18.54;100.00
69318;BME280;56457;52.190;4.440;2023-07-24T00:05:49;100512.91;;;18.56;100.00
69318;BME280;56457;52.190;4.440;2023-07-24T00:06:49;100509.28;;;18.59;100.00
69318;BME280;56457;52.190;4.440;2023-07-24T00:07:50;100504.25;;;18.52;100.00
69318;BME280;56457;52.190;4.440;2023-07-24T00:08:50;100507.00;;;18.49;100.00
69318;BME280;56457;52.190;4.440;2023-07-24T00:09:50;100499.91;;;18.50;100.00
69318;BME280;56457;52.190;4.440;2023-07-24T00:10:51;100502.72;;;18.47;100.00
69318;BME280;56457;52.190;4.440;2023-07-24T00:11:51;100498.38;;;18.44;100.00
69318;BME280;56457;52.190;4.440;2023-07-24T00:12:51;100497.41;;;18.47;100.00
69318;BME280;56457;52.190;4.440;2023-07-24T00:13:52;100494.09;;;18.42;100.00
69318;BME280;56457;52.190;4.440;2023-07-24T00:14:52;100497.81;;;18.38;100.00
69318;BME280;56457;52.190;4.440;2023-07-24T00:15:53;100497.81;;;18.38;100.00
69318;BME280;56457;52.190;4.440;2023-07-24T00:16:53;100488.13;;;18.37;100.00
69318;BME280;56457;52.190;4.440;2023-07-24T00:17:53;100494.00;;;18.43;100.00
69318;BME280;56457;52.190;4.440;2023-07-24T00:18:53;100496.00;;;18.38;100.00
69318;BME280;56457;52.190;4.440;2023-07-24T00:19:54;100504.06;;;18.37;100.00
69318;BME280;56457;52.190;4.440;2023-07-24T00:20:54;100495.97;;;18.40;100.00
69318;BME280;56457;52.190;4.440;2023-07-24T00:21:55;100491.50;;;18.40;100.00
69318;BME280;56457;52.190;4.440;2023-07-24T00:22:55;100487.19;;;18.38;100.00
69318;BME280;56457;52.190;4.440;2023-07-24T00:23:55;100491.88;;;18.33;100.00
69318;BME280;56457;52.190;4.440;2023-07-24T00:24:55;100487.47;;;18.32;100.00
69318;BME280;56457;52.190;4.440;2023-07-24T00:25:56;100483.75;;;18.36;100.00
69318;BME280;56457;52.190;4.440;2023-07-24T00:26:56;100493.22;;;18.41;100.00
69318;BME280;56457;52.190;4.440;2023-07-24T00:27:57;100482.44;;;18.44;100.00
69318;BME280;56457;52.190;4.440;2023-07-24T00:28:58;100488.78;;;18.42;100.00
69318;BME280;56457;52.190;4.440;2023-07-24T00:29:59;100490.06;;;18.33;100.00
69318;BME280;56457;52.190;4.440;2023-07-24T00:30:59;100485.63;;;18.34;100.00
69318;BME280;56457;52.190;4.440;2023-07-24T00:32:00;100486.69;;;18.29;100.00
69318;BME280;56457;52.190;4.440;2023-07-24T00:33:00;100480.50;;;18.29;100.00
69318;BME280;56457;52.190;4.440;2023-07-24T00:34:00;100468.09;;;18.29;100.00
69318;BME280;56457;52.190;4.440;2023-07-24T00:35:01;100473.88;;;18.39;100.00
69318;BME280;56457;52.190;4.440;2023-07-24T00:36:01;100481.09;;;18.36;100.00
69318;BME280;56457;52.190;4.440;2023-07-24T00:37:01;100473.00;;;18.39;100.00
69318;BME280;56457;52.190;4.440;2023-07-24T00:38:01;100467.81;;;18.36;100.00
69318;BME280;56457;52.190;4.440;2023-07-24T00:39:02;100467.97;;;18.33;100.00
69318;BME280;56457;52.190;4.440;2023-07-24T00:40:02;100471.34;;;18.36;100.00
69318;BME280;56457;52.190;4.440;2023-07-24T00:41:03;100469.53;;;18.37;100.00
69318;BME280;56457;52.190;4.440;2023-07-24T00:42:03;100460.78;;;18.35;100.00
69318;BME280;56457;52.190;4.440;2023-07-24T00:43:03;100464.22;;;18.37;100.00
69318;BME280;56457;52.190;4.440;2023-07-24T00:44:04;100464.22;;;18.37;100.00
69318;BME280;56457;52.190;4.440;2023-07-24T00:45:04;100467.72;;;18.37;100.00
69318;BME280;56457;52.190;4.440;2023-07-24T00:46:05;100460.34;;;18.44;100.00
69318;BME280;56457;52.190;4.440;2023-07-24T00:47:05;100457.94;;;18.39;100.00
69318;BME280;56457;52.190;4.440;2023-07-24T00:48:07;100465.03;;;18.39;100.00
69318;BME280;56457;52.190;4.440;2023-07-24T00:49:08;100463.25;;;18.39;100.00
69318;BME280;56457;52.190;4.440;2023-07-24T00:50:08;100470.19;;;18.42;100.00
69318;BME280;56457;52.190;4.440;2023-07-24T00:51:09;100464.97;;;18.40;100.00
69318;BME280;56457;52.190;4.440;2023-07-24T00:52:10;100472.47;;;18.30;100.00
69318;BME280;56457;52.190;4.440;2023-07-24T00:53:11;100463.94;;;18.43;100.00
69318;BME280;56457;52.190;4.440;2023-07-24T00:54:12;100464.81;;;18.43;100.00
69318;BME280;56457;52.190;4.440;2023-07-24T00:55:14;100458.50;;;18.46;100.00
69318;BME280;56457;52.190;4.440;2023-07-24T00:56:16;100448.22;;;18.38;100.00
69318;BME280;56457;52.190;4.440;2023-07-24T00:57:16;100461.50;;;18.38;100.00
69318;BME280;56457;52.190;4.440;2023-07-24T00:58:17;100458.84;;;18.38;100.00
69318;BME280;56457;52.190;4.440;2023-07-24T00:59:19;100461.44;;;18.40;100.00
69318;BME280;56457;52.190;4.440;2023-07-24T01:00:19;100458.63;;;18.43;100.00
69318;BME280;56457;52.190;4.440;2023-07-24T01:01:20;100449.69;;;18.45;100.00
69318;BME280;56457;52.190;4.440;2023-07-24T01:02:20;100450.88;;;18.38;100.00
69318;BME280;56457;52.190;4.440;2023-07-24T01:03:21;100453.41;;;18.41;100.00
69318;BME280;56457;52.190;4.440;2023-07-24T01:04:22;100463.25;;;18.39;100.00
69318;BME280;56457;52.190;4.440;2023-07-24T01:05:23;100456.25;;;18.37;100.00
69318;BME280;56457;52.190;4.440;2023-07-24T01:06:24;100449.38;;;18.33;100.00
69318;BME280;56457;52.190;4.440;2023-07-24T01:07:25;100450.44;;;18.28;100.00
69318;BME280;56457;52.190;4.440;2023-07-24T01:08:25;100447.63;;;18.32;100.00
69318;BME280;56457;52.190;4.440;2023-07-24T01:09:26;100454.47;;;18.37;100.00
69318;BME280;56457;52.190;4.440;2023-07-24T01:10:26;100451.69;;;18.40;100.00
69318;BME280;56457;52.190;4.440;2023-07-24T01:11:28;100451.75;;;18.39;100.00
69318;BME280;56457;52.190;4.440;2023-07-24T01:12:32;100459.50;;;18.43;100.00
69318;BME280;56457;52.190;4.440;2023-07-24T01:13:36;100457.69;;;18.44;100.00
69318;BME280;56457;52.190;4.440;2023-07-24T01:14:41;100454.34;;;18.40;100.00
69318;BME280;56457;52.190;4.440;2023-07-24T01:16:00;100450.66;;;18.43;100.00
69318;BME280;56457;52.190;4.440;2023-07-24T01:17:01;100449.97;;;18.39;100.00
69318;BME280;56457;52.190;4.440;2023-07-24T01:18:06;100456.78;;;18.45;100.00
69318;BME280;56457;52.190;4.440;2023-07-24T01:20:27;100448.44;;;18.34;100.00
69318;BME280;56457;52.190;4.440;2023-07-24T01:21:30;100447.31;;;18.39;100.00
69318;BME280;56457;52.190;4.440;2023-07-24T01:22:38;100440.31;;;18.37;100.00
69318;BME280;56457;52.190;4.440;2023-07-24T01:25:58;100444.28;;;18.47;100.00
69318;BME280;56457;52.190;4.440;2023-07-24T01:26:59;100440.03;;;18.43;100.00
69318;BME280;56457;52.190;4.440;2023-07-24T01:27:59;100441.06;;;18.40;100.00
69318;BME280;56457;52.190;4.440;2023-07-24T01:29:00;100447.44;;;18.36;100.00
69318;BME280;56457;52.190;4.440;2023-07-24T01:30:00;100443.91;;;18.36;100.00
69318;BME280;56457;52.190;4.440;2023-07-24T01:31:00;100439.25;;;18.41;100.00
69318;BME280;56457;52.190;4.440;2023-07-24T01:32:00;100450.47;;;18.47;100.00
69318;BME280;56457;52.190;4.440;2023-07-24T01:33:01;100442.69;;;18.43;100.00
69318;BME280;56457;52.190;4.440;2023-07-24T01:34:01;100448.53;;;18.51;100.00
69318;BME280;56457;52.190;4.440;2023-07-24T01:35:02;100444.28;;;18.47;100.00
69318;BME280;56457;52.190;4.440;2023-07-24T01:36:03;100440.84;;;18.45;100.00
69318;BME280;56457;52.190;4.440;2023-07-24T01:37:04;100440.78;;;18.46;100.00
69318;BME280;56457;52.190;4.440;2023-07-24T01:38:04;100441.56;;;18.48;100.00
69318;BME280;56457;52.190;4.440;2023-07-24T01:39:05;100444.97;;;18.50;100.00
69318;BME280;56457;52.190;4.440;2023-07-24T01:40:08;100442.63;;;18.44;100.00
69318;BME280;56457;52.190;4.440;2023-07-24T01:41:09;100435.81;;;18.39;100.00
69318;BME280;56457;52.190;4.440;2023-07-24T01:42:10;100440.84;;;18.45;100.00
69318;BME280;56457;52.190;4.440;2023-07-24T01:43:10;100440.69;;;18.48;100.00
69318;BME280;56457;52.190;4.440;2023-07-24T01:44:11;100436.97;;;18.52;100.00
69318;BME280;56457;52.190;4.440;2023-07-24T01:45:11;100430.78;;;18.51;100.00
69318;BME280;56457;52.190;4.440;2023-07-24T01:46:11;100426.47;;;18.49;100.00
69318;BME280;56457;52.190;4.440;2023-07-24T01:47:12;100428.19;;;18.50;100.00
69318;BME280;56457;52.190;4.440;2023-07-24T01:48:12;100424.75;;;18.48;100.00
69318;BME280;56457;52.190;4.440;2023-07-24T01:49:12;100424.91;;;18.45;100.00
69318;BME280;56457;52.190;4.440;2023-07-24T01:50:13;100425.97;;;18.41;100.00
69318;BME280;56457;52.190;4.440;2023-07-24T01:51:14;100423.69;;;18.52;100.00
69318;BME280;56457;52.190;4.440;2023-07-24T01:52:15;100421.81;;;18.54;100.00
69318;BME280;56457;52.190;4.440;2023-07-24T01:53:15;100419.94;;;18.56;100.00
69318;BME280;56457;52.190;4.440;2023-07-24T01:54:16;100425.19;;;18.58;100.00
69318;BME280;56457;52.190;4.440;2023-07-24T01:55:16;100417.06;;;18.61;100.00
69318;BME280;56457;52.190;4.440;2023-07-24T01:56:16;100430.34;;;18.61;100.00
69318;BME280;56457;52.190;4.440;2023-07-24T01:57:16;100428.91;;;18.53;100.00
69318;BME280;56457;52.190;4.440;2023-07-24T01:58:17;100426.25;;;18.53;100.00
69318;BME280;56457;52.190;4.440;2023-07-24T01:59:17;100430.84;;;18.50;100.00
69318;BME280;56457;52.190;4.440;2023-07-24T02:00:18;100431.69;;;18.50;100.00
69318;BME280;56457;52.190;4.440;2023-07-24T02:01:18;100425.59;;;18.48;100.00
69318;BME280;56457;52.190;4.440;2023-07-24T02:02:18;100431.09;;;18.45;100.00
69318;BME280;56457;52.190;4.440;2023-07-24T02:03:18;100425.41;;;18.53;100.00
69318;BME280;56457;52.190;4.440;2023-07-24T02:04:19;100425.03;;;18.61;100.00
69318;BME280;56457;52.190;4.440;2023-07-24T02:05:22;100413.34;;;18.65;100.00
69318;BME280;56457;52.190;4.440;2023-07-24T02:06:22;100416.97;;;18.62;100.00
69318;BME280;56457;52.190;4.440;2023-07-24T02:07:22;100408.22;;;18.60;100.00
69318;BME280;56457;52.190;4.440;2023-07-24T02:08:23;100404.63;;;18.61;100.00
69318;BME280;56457;52.190;4.440;2023-07-24T02:09:23;100403.44;;;18.49;100.00
69318;BME280;56457;52.190;4.440;2023-07-24T02:10:23;100406.09;;;18.49;100.00
69318;BME280;56457;52.190;4.440;2023-07-24T02:11:23;100395.25;;;18.54;100.00
69318;BME280;56457;52.190;4.440;2023-07-24T02:12:24;100395.13;;;18.57;100.00
69318;BME280;56457;52.190;4.440;2023-07-24T02:13:24;100394.69;;;18.47;100.00
69318;BME280;56457;52.190;4.440;2023-07-24T02:14:24;100392.47;;;18.57;100.00
69318;BME280;56457;52.190;4.440;2023-07-24T02:15:24;100390.56;;;18.59;100.00
69318;BME280;56457;52.190;4.440;2023-07-24T02:16:25;100393.91;;;18.45;100.00
69318;BME280;56457;52.190;4.440;2023-07-24T02:17:25;100389.28;;;18.49;100.00
69318;BME280;56457;52.190;4.440;2023-07-24T02:18:25;100398.06;;;18.51;100.00
69318;BME280;56457;52.190;4.440;2023-07-24T02:19:26;100400.91;;;18.65;100.00
69318;BME280;56457;52.190;4.440;2023-07-24T02:20:26;100398.25;;;18.65;100.00
69318;BME280;56457;52.190;4.440;2023-07-24T02:21:26;100401.00;;;18.64;100.00
69318;BME280;56457;52.190;4.440;2023-07-24T02:22:26;100400.78;;;18.68;100.00
69318;BME280;56457;52.190;4.440;2023-07-24T02:23:27;100407.94;;;18.66;100.00
69318;BME280;56457;52.190;4.440;2023-07-24T02:24:27;100406.59;;;18.58;100.00
69318;BME280;56457;52.190;4.440;2023-07-24T02:25:27;100417.22;;;18.58;100.00
69318;BME280;56457;52.190;4.440;2023-07-24T02:26:27;100413.84;;;18.54;100.00
69318;BME280;56457;52.190;4.440;2023-07-24T02:27:30;100410.53;;;18.49;100.00
69318;BME280;56457;52.190;4.440;2023-07-24T02:28:34;100405.09;;;18.52;100.00
69318;BME280;56457;52.190;4.440;2023-07-24T02:29:34;100397.59;;;18.60;100.00
69318;BME280;56457;52.190;4.440;2023-07-24T02:30:39;100403.53;;;18.67;100.00
69318;BME280;56457;52.190;4.440;2023-07-24T02:31:39;100403.53;;;18.67;100.00
69318;BME280;56457;52.190;4.440;2023-07-24T02:32:40;100396.47;;;18.66;100.00
69318;BME280;56457;52.190;4.440;2023-07-24T02:33:40;100392.22;;;18.62;100.00
69318;BME280;56457;52.190;4.440;2023-07-24T02:34:40;100388.31;;;18.70;100.00
69318;BME280;56457;52.190;4.440;2023-07-24T02:35:41;100379.19;;;18.76;100.00
69318;BME280;56457;52.190;4.440;2023-07-24T02:36:41;100382.69;;;18.76;100.00
69318;BME280;56457;52.190;4.440;2023-07-24T02:37:41;100381.19;;;18.71;100.00
69318;BME280;56457;52.190;4.440;2023-07-24T02:38:41;100388.44;;;18.67;100.00
69318;BME280;56457;52.190;4.440;2023-07-24T02:39:42;100380.72;;;18.61;100.00
69318;BME280;56457;52.190;4.440;2023-07-24T02:40:43;100382.53;;;18.61;100.00
69318;BME280;56457;52.190;4.440;2023-07-24T02:41:44;100385.06;;;18.64;100.00
69318;BME280;56457;52.190;4.440;2023-07-24T02:42:44;100379.66;;;18.65;100.00
69318;BME280;56457;52.190;4.440;2023-07-24T02:43:44;100378.06;;;18.61;100.00
69318;BME280;56457;52.190;4.440;2023-07-24T02:44:44;100388.56;;;18.64;100.00
69318;BME280;56457;52.190;4.440;2023-07-24T02:45:45;100375.41;;;18.61;100.00
69318;BME280;56457;52.190;4.440;2023-07-24T02:46:45;100375.88;;;18.52;100.00
69318;BME280;56457;52.190;4.440;2023-07-24T02:47:45;100366.81;;;18.56;100.00
69318;BME280;56457;52.190;4.440;2023-07-24T02:48:46;100373.22;;;18.52;100.00
69318;BME280;56457;52.190;4.440;2023-07-24T02:49:46;100378.38;;;18.55;100.00
69318;BME280;56457;52.190;4.440;2023-07-24T02:50:47;100379.88;;;18.61;100.00
69318;BME280;56457;52.190;4.440;2023-07-24T02:51:47;100378.22;;;18.58;100.00
69318;BME280;56457;52.190;4.440;2023-07-24T02:52:50;100374.00;;;18.54;100.00
69318;BME280;56457;52.190;4.440;2023-07-24T02:53:50;100378.38;;;18.55;100.00
69318;BME280;56457;52.190;4.440;2023-07-24T02:54:50;100384.50;;;18.57;100.00
69318;BME280;56457;52.190;4.440;2023-07-24T02:55:51;100384.97;;;18.65;100.00
69318;BME280;56457;52.190;4.440;2023-07-24T02:56:51;100370.09;;;18.61;100.00
69318;BME280;56457;52.190;4.440;2023-07-24T02:57:51;100370.69;;;18.68;100.00
69318;BME280;56457;52.190;4.440;2023-07-24T02:58:52;100367.31;;;18.64;100.00
69318;BME280;56457;52.190;4.440;2023-07-24T02:59:52;100367.31;;;18.64;100.00
69318;BME280;56457;52.190;4.440;2023-07-24T03:00:52;100363.84;;;18.62;100.00
69318;BME280;56457;52.190;4.440;2023-07-24T03:01:52;100364.16;;;18.56;100.00
69318;BME280;56457;52.190;4.440;2023-07-24T03:02:53;100360.41;;;18.60;100.00
69318;BME280;56457;52.190;4.440;2023-07-24T03:03:53;100360.13;;;18.66;100.00
69318;BME280;56457;52.190;4.440;2023-07-24T03:04:53;100360.88;;;18.70;100.00
69318;BME280;56457;52.190;4.440;2023-07-24T03:05:53;100362.63;;;18.69;100.00
69318;BME280;56457;52.190;4.440;2023-07-24T03:06:54;100366.31;;;18.67;100.00
69318;BME280;56457;52.190;4.440;2023-07-24T03:07:54;100371.50;;;18.70;100.00
69318;BME280;56457;52.190;4.440;2023-07-24T03:08:54;100369.84;;;18.67;100.00
69318;BME280;56457;52.190;4.440;2023-07-24T03:09:55;100376.06;;;18.66;100.00
69318;BME280;56457;52.190;4.440;2023-07-24T03:10:56;100376.19;;;18.63;100.00
69318;BME280;56457;52.190;4.440;2023-07-24T03:11:56;100366.50;;;18.62;100.00
69318;BME280;56457;52.190;4.440;2023-07-24T03:12:56;100372.50;;;18.67;100.00
69318;BME280;56457;52.190;4.440;2023-07-24T03:13:56;100378.66;;;18.68;100.00
69318;BME280;56457;52.190;4.440;2023-07-24T03:14:57;100372.63;;;18.64;100.00
69318;BME280;56457;52.190;4.440;2023-07-24T03:15:57;100380.81;;;18.60;100.00
69318;BME280;56457;52.190;4.440;2023-07-24T03:16:58;100376.00;;;18.68;100.00
69318;BME280;56457;52.190;4.440;2023-07-24T03:17:58;100374.34;;;18.65;100.00
69318;BME280;56457;52.190;4.440;2023-07-24T03:18:58;100376.34;;;18.60;100.00
69318;BME280;56457;52.190;4.440;2023-07-24T03:19:59;100372.53;;;18.66;100.00
69318;BME280;56457;52.190;4.440;2023-07-24T03:20:59;100380.72;;;18.61;100.00
69318;BME280;56457;52.190;4.440;2023-07-24T03:22:00;100377.84;;;18.66;100.00
69318;BME280;56457;52.190;4.440;2023-07-24T03:23:00;100378.84;;;18.63;100.00
69318;BME280;56457;52.190;4.440;2023-07-24T03:24:00;100380.59;;;18.64;100.00
69318;BME280;56457;52.190;4.440;2023-07-24T03:25:01;100378.22;;;18.58;100.00
69318;BME280;56457;52.190;4.440;2023-07-24T03:26:01;100367.44;;;18.61;100.00
69318;BME280;56457;52.190;4.440;2023-07-24T03:27:02;100368.03;;;18.68;100.00
69318;BME280;56457;52.190;4.440;2023-07-24T03:28:02;100364.53;;;18.67;100.00
69318;BME280;56457;52.190;4.440;2023-07-24T03:29:03;100362.91;;;18.63;100.00
69318;BME280;56457;52.190;4.440;2023-07-24T03:30:03;100367.31;;;18.64;100.00
69318;BME280;56457;52.190;4.440;2023-07-24T03:31:04;100375.28;;;18.64;100.00
69318;BME280;56457;52.190;4.440;2023-07-24T03:32:04;100362.44;;;18.55;100.00
69318;BME280;56457;52.190;4.440;2023-07-24T03:33:04;100367.59;;;18.58;100.00
69318;BME280;56457;52.190;4.440;2023-07-24T03:34:06;100365.66;;;18.62;100.00
69318;BME280;56457;52.190;4.440;2023-07-24T03:35:06;100372.50;;;18.67;100.00
69318;BME280;56457;52.190;4.440;2023-07-24T03:36:07;100370.56;;;18.71;100.00
69318;BME280;56457;52.190;4.440;2023-07-24T03:37:07;100366.81;;;18.56;100.00
69318;BME280;56457;52.190;4.440;2023-07-24T03:38:07;100373.50;;;18.46;100.00
69318;BME280;56457;52.190;4.440;2023-07-24T03:39:11;100371.25;;;18.55;100.00
69318;BME280;56457;52.190;4.440;2023-07-24T03:40:11;100370.03;;;18.63;100.00
69318;BME280;56457;52.190;4.440;2023-07-24T03:41:12;100370.41;;;18.55;100.00
69318;BME280;56457;52.190;4.440;2023-07-24T03:42:23;100370.59;;;18.50;100.00
69318;BME280;56457;52.190;4.440;2023-07-24T03:43:24;100370.59;;;18.50;100.00
69318;BME280;56457;52.190;4.440;2023-07-24T03:44:24;100371.25;;;18.55;100.00
69318;BME280;56457;52.190;4.440;2023-07-24T03:45:24;100371.91;;;18.61;100.00
69318;BME280;56457;52.190;4.440;2023-07-24T03:46:25;100373.69;;;18.60;100.00
69318;BME280;56457;52.190;4.440;2023-07-24T03:47:25;100369.63;;;18.53;100.00
69318;BME280;56457;52.190;4.440;2023-07-24T03:48:26;100363.38;;;18.54;100.00
69318;BME280;56457;52.190;4.440;2023-07-24T03:49:26;100364.94;;;18.58;100.00
69318;BME280;56457;52.190;4.440;2023-07-24T03:50:28;100367.81;;;18.53;100.00
69318;BME280;56457;52.190;4.440;2023-07-24T03:51:28;100370.59;;;18.50;100.00
69318;BME280;56457;52.190;4.440;2023-07-24T03:52:29;100366.81;;;18.56;100.00
69318;BME280;56457;52.190;4.440;2023-07-24T03:53:29;100366.03;;;18.54;100.00
69318;BME280;56457;52.190;4.440;2023-07-24T03:54:29;100370.84;;;18.46;100.00
69318;BME280;56457;52.190;4.440;2023-07-24T03:55:30;100370.19;;;18.41;100.00
69318;BME280;56457;52.190;4.440;2023-07-24T03:56:30;100373.63;;;18.43;100.00
69318;BME280;56457;52.190;4.440;2023-07-24T03:57:30;100369.91;;;18.47;100.00
69318;BME280;56457;52.190;4.440;2023-07-24T03:58:31;100368.31;;;18.43;100.00
69318;BME280;56457;52.190;4.440;2023-07-24T03:59:31;100373.94;;;18.37;100.00
69318;BME280;56457;52.190;4.440;2023-07-24T04:00:31;100378.59;;;18.32;100.00
69318;BME280;56457;52.190;4.440;2023-07-24T04:01:32;100380.66;;;18.44;100.00
69318;BME280;56457;52.190;4.440;2023-07-24T04:02:32;100371.41;;;18.52;100.00
69318;BME280;56457;52.190;4.440;2023-07-24T04:03:32;100373.91;;;18.55;100.00
69318;BME280;56457;52.190;4.440;2023-07-24T04:04:33;100368.03;;;18.49;100.00
69318;BME280;56457;52.190;4.440;2023-07-24T04:05:34;100372.50;;;18.48;100.00
69318;BME280;56457;52.190;4.440;2023-07-24T04:06:34;100371.78;;;18.45;100.00
69318;BME280;56457;52.190;4.440;2023-07-24T04:07:34;100384.50;;;18.57;100.00
69318;BME280;56457;52.190;4.440;2023-07-24T04:08:35;100372.63;;;18.64;100.00
69318;BME280;56457;52.190;4.440;2023-07-24T04:09:35;100380.59;;;18.64;100.00
69318;BME280;56457;52.190;4.440;2023-07-24T04:10:35;100378.72;;;18.66;100.00
69318;BME280;56457;52.190;4.440;2023-07-24T04:11:36;100372.53;;;18.66;100.00
69318;BME280;56457;52.190;4.440;2023-07-24T04:12:38;100374.72;;;18.58;100.00
69318;BME280;56457;52.190;4.440;2023-07-24T04:13:38;100374.63;;;18.59;100.00
69318;BME280;56457;52.190;4.440;2023-07-24T04:14:38;100377.50;;;18.54;100.00
69318;BME280;56457;52.190;4.440;2023-07-24T04:15:39;100381.38;;;18.66;100.00
69318;BME280;56457;52.190;4.440;2023-07-24T04:16:39;100374.56;;;18.61;100.00
69318;BME280;56457;52.190;4.440;2023-07-24T04:17:40;100369.63;;;18.53;100.00
69318;BME280;56457;52.190;4.440;2023-07-24T04:18:41;100370.56;;;18.52;100.00
69318;BME280;56457;52.190;4.440;2023-07-24T04:19:42;100374.72;;;18.58;100.00
69318;BME280;56457;52.190;4.440;2023-07-24T04:20:42;100369.63;;;18.53;100.00
69318;BME280;56457;52.190;4.440;2023-07-24T04:21:42;100365.94;;;18.55;100.00
69318;BME280;56457;52.190;4.440;2023-07-24T04:22:43;100374.00;;;18.54;100.00
69318;BME280;56457;52.190;4.440;2023-07-24T04:23:43;100368.75;;;18.52;100.00
69318;BME280;56457;52.190;4.440;2023-07-24T04:24:43;100372.13;;;18.56;100.00
69318;BME280;56457;52.190;4.440;2023-07-24T04:25:44;100367.75;;;18.55;100.00
69318;BME280;56457;52.190;4.440;2023-07-24T04:26:44;100372.06;;;18.58;100.00
69318;BME280;56457;52.190;4.440;2023-07-24T04:27:44;100378.94;;;18.62;100.00
69318;BME280;56457;52.190;4.440;2023-07-24T04:28:44;100377.13;;;18.62;100.00
69318;BME280;56457;52.190;4.440;2023-07-24T04:29:45;100373.06;;;18.55;100.00
69318;BME280;56457;52.190;4.440;2023-07-24T04:30:45;100370.47;;;18.53;100.00
69318;BME280;56457;52.190;4.440;2023-07-24T04:31:45;100369.31;;;18.59;100.00
69318;BME280;56457;52.190;4.440;2023-07-24T04:32:46;100377.00;;;18.65;100.00
69318;BME280;56457;52.190;4.440;2023-07-24T04:33:46;100377.84;;;18.66;100.00
69318;BME280;56457;52.190;4.440;2023-07-24T04:34:46;100373.63;;;18.62;100.00
69318;BME280;56457;52.190;4.440;2023-07-24T04:35:47;100374.34;;;18.65;100.00
69318;BME280;56457;52.190;4.440;2023-07-24T04:36:48;100378.44;;;18.72;100.00
69318;BME280;56457;52.190;4.440;2023-07-24T04:37:48;100370.47;;;18.72;100.00
69318;BME280;56457;52.190;4.440;2023-07-24T04:38:48;100367.59;;;18.77;100.00
69318;BME280;56457;52.190;4.440;2023-07-24T04:39:49;100374.72;;;18.76;100.00
69318;BME280;56457;52.190;4.440;2023-07-24T04:40:49;100370.47;;;18.72;100.00
69318;BME280;56457;52.190;4.440;2023-07-24T04:41:49;100376.53;;;18.76;100.00
69318;BME280;56457;52.190;4.440;2023-07-24T04:42:50;100372.06;;;18.76;100.00
69318;BME280;56457;52.190;4.440;2023-07-24T04:43:51;100378.16;;;18.78;100.00
69318;BME280;56457;52.190;4.440;2023-07-24T04:44:51;100372.66;;;18.81;100.00
69318;BME280;56457;52.190;4.440;2023-07-24T04:45:51;100377.06;;;18.82;100.00
69318;BME280;56457;52.190;4.440;2023-07-24T04:46:52;100384.25;;;18.80;100.00
69318;BME280;56457;52.190;4.440;2023-07-24T04:47:52;100378.78;;;18.83;100.00
69318;BME280;56457;52.190;4.440;2023-07-24T04:48:52;100383.16;;;18.85;100.00
69318;BME280;56457;52.190;4.440;2023-07-24T04:49:52;100371.13;;;18.77;100.00
69318;BME280;56457;52.190;4.440;2023-07-24T04:50:56;100373.59;;;18.80;100.00
69318;BME280;56457;52.190;4.440;2023-07-24T04:51:56;100372.63;;;18.83;100.00
69318;BME280;56457;52.190;4.440;2023-07-24T04:52:56;100373.84;;;18.76;100.00
69318;BME280;56457;52.190;4.440;2023-07-24T04:53:57;100371.19;;;18.76;100.00
69318;BME280;56457;52.190;4.440;2023-07-24T04:54:57;100371.34;;;18.73;100.00
69318;BME280;56457;52.190;4.440;2023-07-24T04:55:57;100376.94;;;18.67;100.00
69318;BME280;56457;52.190;4.440;2023-07-24T04:56:58;100379.66;;;18.65;100.00
69318;BME280;56457;52.190;4.440;2023-07-24T04:57:58;100374.22;;;18.68;100.00
69318;BME280;56457;52.190;4.440;2023-07-24T04:58:58;100383.03;;;18.69;100.00
69318;BME280;56457;52.190;4.440;2023-07-24T04:59:59;100371.56;;;18.68;100.00
69318;BME280;56457;52.190;4.440;2023-07-24T05:01:02;100371.56;;;18.68;100.00
69318;BME280;56457;52.190;4.440;2023-07-24T05:02:02;100377.81;;;18.67;100.00
69318;BME280;56457;52.190;4.440;2023-07-24T05:03:02;100374.22;;;18.68;100.00
69318;BME280;56457;52.190;4.440;2023-07-24T05:04:03;100372.28;;;18.72;100.00
69318;BME280;56457;52.190;4.440;2023-07-24T05:05:03;100371.56;;;18.68;100.00
69318;BME280;56457;52.190;4.440;2023-07-24T05:06:04;100375.06;;;18.69;100.00
69318;BME280;56457;52.190;4.440;2023-07-24T05:07:04;100367.81;;;18.72;100.00
69318;BME280;56457;52.190;4.440;2023-07-24T05:08:04;100365.72;;;18.79;100.00
69318;BME280;56457;52.190;4.440;2023-07-24T05:09:05;100366.44;;;18.82;100.00
69318;BME280;56457;52.190;4.440;2023-07-24T05:10:06;100369.03;;;18.84;100.00
69318;BME280;56457;52.190;4.440;2023-07-24T05:11:06;100363.84;;;18.81;100.00
69318;BME280;56457;52.190;4.440;2023-07-24T05:12:07;100362.94;;;18.82;100.00
69318;BME280;56457;52.190;4.440;2023-07-24T05:13:07;100365.41;;;18.85;100.00
69318;BME280;56457;52.190;4.440;2023-07-24T05:14:08;100368.94;;;18.86;100.00
69318;BME280;56457;52.190;4.440;2023-07-24T05:15:08;100363.63;;;18.86;100.00
69318;BME280;56457;52.190;4.440;2023-07-24T05:16:09;100367.22;;;18.85;100.00
69318;BME280;56457;52.190;4.440;2023-07-24T05:17:09;100368.84;;;18.87;100.00